sensor_id;sensor_type;location;lat;lon;timestamp;temperature;humidity
21712;DHT22;11017;53.552;9.910;2023-05-07T00:01:26;9.90;99.90
21712;DHT22;11017;53.552;9.910;2023-05-07T00:03:53;10.00;99.90
21712;DHT22;11017;53.552;9.910;2023-05-07T00:06:21;10.00;99.90
21712;DHT22;11017;53.552;9.910;2023-05-07T00:08:48;9.90;99.90
21712;DHT22;11017;53.552;9.910;2023-05-07T00:11:15;9.80;99.90
21712;DHT22;11017;53.552;9.910;2023-05-07T00:13:41;9.90;99.90
21712;DHT22;11017;53.552;9.910;2023-05-07T00:16:08;9.90;99.90
21712;DHT22;11017;53.552;9.910;2023-05-07T00:18:35;10.00;99.90
21712;DHT22;11017;53.552;9.910;2023-05-07T00:21:02;10.00;99.90
21712;DHT22;11017;53.552;9.910;2023-05-07T00:23:30;10.00;99.90
21712;DHT22;11017;53.552;9.910;2023-05-07T00:25:57;9.90;99.90
21712;DHT22;11017;53.552;9.910;2023-05-07T00:28:24;9.80;99.90
21712;DHT22;11017;53.552;9.910;2023-05-07T00:30:51;9.70;99.90
21712;DHT22;11017;53.552;9.910;2023-05-07T00:33:19;9.70;99.90
21712;DHT22;11017;53.552;9.910;2023-05-07T00:35:46;9.70;99.90
21712;DHT22;11017;53.552;9.910;2023-05-07T00:38:13;9.80;99.90
21712;DHT22;11017;53.552;9.910;2023-05-07T00:40:41;10.00;99.90
21712;DHT22;11017;53.552;9.910;2023-05-07T00:43:08;9.80;99.90
21712;DHT22;11017;53.552;9.910;2023-05-07T00:45:35;9.70;99.90
21712;DHT22;11017;53.552;9.910;2023-05-07T00:48:02;9.70;99.90
21712;DHT22;11017;53.552;9.910;2023-05-07T00:50:30;9.80;99.90
21712;DHT22;11017;53.552;9.910;2023-05-07T00:52:58;9.90;99.90
21712;DHT22;11017;53.552;9.910;2023-05-07T00:55:26;9.90;99.90
21712;DHT22;11017;53.552;9.910;2023-05-07T00:57:54;9.90;99.90
21712;DHT22;11017;53.552;9.910;2023-05-07T01:00:21;9.70;99.90
21712;DHT22;11017;53.552;9.910;2023-05-07T01:02:48;9.70;99.90
21712;DHT22;11017;53.552;9.910;2023-05-07T01:05:17;9.70;99.90
21712;DHT22;11017;53.552;9.910;2023-05-07T01:07:44;9.80;99.90
21712;DHT22;11017;53.552;9.910;2023-05-07T01:10:12;9.80;99.90
21712;DHT22;11017;53.552;9.910;2023-05-07T01:12:40;9.90;99.90
21712;DHT22;11017;53.552;9.910;2023-05-07T01:15:09;9.90;99.90
21712;DHT22;11017;53.552;9.910;2023-05-07T01:17:37;10.00;99.90
21712;DHT22;11017;53.552;9.910;2023-05-07T01:20:05;9.90;99.90
21712;DHT22;11017;53.552;9.910;2023-05-07T01:22:35;9.90;99.90
21712;DHT22;11017;53.552;9.910;2023-05-07T01:25:03;9.90;99.90
21712;DHT22;11017;53.552;9.910;2023-05-07T01:27:30;10.00;99.90
21712;DHT22;11017;53.552;9.910;2023-05-07T01:29:58;10.10;99.90
21712;DHT22;11017;53.552;9.910;2023-05-07T01:32:29;10.00;99.90
21712;DHT22;11017;53.552;9.910;2023-05-07T01:34:57;10.10;99.90
21712;DHT22;11017;53.552;9.910;2023-05-07T01:37:25;9.90;99.90
21712;DHT22;11017;53.552;9.910;2023-05-07T01:39:54;9.80;99.90
21712;DHT22;11017;53.552;9.910;2023-05-07T01:42:21;9.80;99.90
21712;DHT22;11017;53.552;9.910;2023-05-07T01:44:49;9.90;99.90
21712;DHT22;11017;53.552;9.910;2023-05-07T01:47:16;10.00;99.90
21712;DHT22;11017;53.552;9.910;2023-05-07T01:49:43;10.00;99.90
21712;DHT22;11017;53.552;9.910;2023-05-07T01:52:10;10.00;99.90
21712;DHT22;11017;53.552;9.910;2023-05-07T01:54:38;10.00;99.90
21712;DHT22;11017;53.552;9.910;2023-05-07T01:57:06;10.10;99.90
21712;DHT22;11017;53.552;9.910;2023-05-07T01:59:33;10.10;99.90
21712;DHT22;11017;53.552;9.910;2023-05-07T02:01:59;10.20;99.90
21712;DHT22;11017;53.552;9.910;2023-05-07T02:04:27;10.00;99.90
21712;DHT22;11017;53.552;9.910;2023-05-07T02:06:54;10.00;99.90
21712;DHT22;11017;53.552;9.910;2023-05-07T02:09:21;9.90;99.90
21712;DHT22;11017;53.552;9.910;2023-05-07T02:11:48;9.90;99.90
21712;DHT22;11017;53.552;9.910;2023-05-07T02:14:16;9.90;99.90
21712;DHT22;11017;53.552;9.910;2023-05-07T02:16:43;9.90;99.90
21712;DHT22;11017;53.552;9.910;2023-05-07T02:19:10;10.00;99.90
21712;DHT22;11017;53.552;9.910;2023-05-07T02:21:37;10.00;99.90
21712;DHT22;11017;53.552;9.910;2023-05-07T02:24:04;10.00;99.90
21712;DHT22;11017;53.552;9.910;2023-05-07T02:26:31;10.00;99.90
21712;DHT22;11017;53.552;9.910;2023-05-07T02:28:58;9.80;99.90
21712;DHT22;11017;53.552;9.910;2023-05-07T02:31:26;10.00;99.90
21712;DHT22;11017;53.552;9.910;2023-05-07T02:33:53;9.90;99.90
21712;DHT22;11017;53.552;9.910;2023-05-07T02:36:20;10.00;99.90
21712;DHT22;11017;53.552;9.910;2023-05-07T02:38:47;10.10;99.90
21712;DHT22;11017;53.552;9.910;2023-05-07T02:41:14;10.20;99.90
21712;DHT22;11017;53.552;9.910;2023-05-07T02:43:40;10.00;99.90
21712;DHT22;11017;53.552;9.910;2023-05-07T02:46:08;10.00;99.90
21712;DHT22;11017;53.552;9.910;2023-05-07T02:48:36;10.20;99.90
21712;DHT22;11017;53.552;9.910;2023-05-07T02:51:04;10.20;99.90
21712;DHT22;11017;53.552;9.910;2023-05-07T02:53:32;10.10;99.90
21712;DHT22;11017;53.552;9.910;2023-05-07T02:56:01;10.10;99.90
21712;DHT22;11017;53.552;9.910;2023-05-07T02:58:28;10.10;99.90
21712;DHT22;11017;53.552;9.910;2023-05-07T03:00:55;10.10;99.90
21712;DHT22;11017;53.552;9.910;2023-05-07T03:03:22;10.20;99.90
21712;DHT22;11017;53.552;9.910;2023-05-07T03:05:50;10.30;99.90
21712;DHT22;11017;53.552;9.910;2023-05-07T03:08:17;10.20;99.90
21712;DHT22;11017;53.552;9.910;2023-05-07T03:10:44;10.30;99.90
21712;DHT22;11017;53.552;9.910;2023-05-07T03:13:11;10.30;99.90
21712;DHT22;11017;53.552;9.910;2023-05-07T03:15:37;10.20;99.90
21712;DHT22;11017;53.552;9.910;2023-05-07T03:18:04;10.10;99.90
21712;DHT22;11017;53.552;9.910;2023-05-07T03:20:31;10.00;99.90
21712;DHT22;11017;53.552;9.910;2023-05-07T03:23:00;10.00;99.90
21712;DHT22;11017;53.552;9.910;2023-05-07T03:25:27;10.00;99.90
21712;DHT22;11017;53.552;9.910;2023-05-07T03:27:53;10.00;99.90
21712;DHT22;11017;53.552;9.910;2023-05-07T03:30:20;9.80;99.90
21712;DHT22;11017;53.552;9.910;2023-05-07T03:32:47;9.90;99.90
21712;DHT22;11017;53.552;9.910;2023-05-07T03:35:14;9.80;99.90
21712;DHT22;11017;53.552;9.910;2023-05-07T03:37:41;9.80;99.90
21712;DHT22;11017;53.552;9.910;2023-05-07T03:40:11;9.80;99.90
21712;DHT22;11017;53.552;9.910;2023-05-07T03:42:38;9.80;99.90
21712;DHT22;11017;53.552;9.910;2023-05-07T03:45:06;9.80;99.90
21712;DHT22;11017;53.552;9.910;2023-05-07T03:47:33;9.90;99.90
21712;DHT22;11017;53.552;9.910;2023-05-07T03:50:00;9.80;99.90
21712;DHT22;11017;53.552;9.910;2023-05-07T03:52:27;9.90;99.90
21712;DHT22;11017;53.552;9.910;2023-05-07T03:54:54;10.00;99.90
21712;DHT22;11017;53.552;9.910;2023-05-07T03:57:22;9.90;99.90
21712;DHT22;11017;53.552;9.910;2023-05-07T03:59:49;9.90;99.90
21712;DHT22;11017;53.552;9.910;2023-05-07T04:02:16;10.00;99.90
21712;DHT22;11017;53.552;9.910;2023-05-07T04:04:42;10.00;99.90
21712;DHT22;11017;53.552;9.910;2023-05-07T04:07:09;10.00;99.90
21712;DHT22;11017;53.552;9.910;2023-05-07T04:09:36;10.00;99.90
21712;DHT22;11017;53.552;9.910;2023-05-07T04:12:04;10.00;99.90
21712;DHT22;11017;53.552;9.910;2023-05-07T04:14:32;9.80;99.90
21712;DHT22;11017;53.552;9.910;2023-05-07T04:16:59;9.70;99.90
21712;DHT22;11017;53.552;9.910;2023-05-07T04:19:26;9.70;99.90
21712;DHT22;11017;53.552;9.910;2023-05-07T04:21:52;9.90;99.90
21712;DHT22;11017;53.552;9.910;2023-05-07T04:24:20;10.00;99.90
21712;DHT22;11017;53.552;9.910;2023-05-07T04:26:47;10.10;99.90
21712;DHT22;11017;53.552;9.910;2023-05-07T04:29:13;10.30;99.90
21712;DHT22;11017;53.552;9.910;2023-05-07T04:31:42;10.20;99.90
21712;DHT22;11017;53.552;9.910;2023-05-07T04:34:10;10.20;99.90
21712;DHT22;11017;53.552;9.910;2023-05-07T04:36:37;10.20;99.90
21712;DHT22;11017;53.552;9.910;2023-05-07T04:39:04;10.10;99.90
21712;DHT22;11017;53.552;9.910;2023-05-07T04:41:32;10.00;99.90
21712;DHT22;11017;53.552;9.910;2023-05-07T04:43:58;10.30;99.90
21712;DHT22;11017;53.552;9.910;2023-05-07T04:46:25;10.30;99.90
21712;DHT22;11017;53.552;9.910;2023-05-07T04:48:54;10.20;99.90
21712;DHT22;11017;53.552;9.910;2023-05-07T04:51:20;10.20;99.90
21712;DHT22;11017;53.552;9.910;2023-05-07T04:53:48;10.20;99.90
21712;DHT22;11017;53.552;9.910;2023-05-07T04:56:15;10.30;99.90
21712;DHT22;11017;53.552;9.910;2023-05-07T04:58:41;10.30;99.90
21712;DHT22;11017;53.552;9.910;2023-05-07T05:01:08;10.30;99.90
21712;DHT22;11017;53.552;9.910;2023-05-07T05:03:36;10.40;99.90
21712;DHT22;11017;53.552;9.910;2023-05-07T05:06:04;10.50;99.90
21712;DHT22;11017;53.552;9.910;2023-05-07T05:08:31;10.50;99.90
21712;DHT22;11017;53.552;9.910;2023-05-07T05:10:58;10.30;99.90
21712;DHT22;11017;53.552;9.910;2023-05-07T05:13:27;10.30;99.90
21712;DHT22;11017;53.552;9.910;2023-05-07T05:15:53;10.30;99.90
21712;DHT22;11017;53.552;9.910;2023-05-07T05:18:21;10.50;99.90
21712;DHT22;11017;53.552;9.910;2023-05-07T05:20:48;10.50;99.90
21712;DHT22;11017;53.552;9.910;2023-05-07T05:23:16;10.40;99.90
21712;DHT22;11017;53.552;9.910;2023-05-07T05:25:43;10.60;99.90
21712;DHT22;11017;53.552;9.910;2023-05-07T05:28:10;10.40;99.90
21712;DHT22;11017;53.552;9.910;2023-05-07T05:30:37;10.30;99.90
21712;DHT22;11017;53.552;9.910;2023-05-07T05:33:03;10.40;99.90
21712;DHT22;11017;53.552;9.910;2023-05-07T05:35:30;10.30;99.90
21712;DHT22;11017;53.552;9.910;2023-05-07T05:37:57;10.20;99.90
21712;DHT22;11017;53.552;9.910;2023-05-07T05:40:25;10.30;99.90
21712;DHT22;11017;53.552;9.910;2023-05-07T05:42:52;10.30;99.90
21712;DHT22;11017;53.552;9.910;2023-05-07T05:45:19;10.20;99.90
21712;DHT22;11017;53.552;9.910;2023-05-07T05:47:46;10.20;99.90
21712;DHT22;11017;53.552;9.910;2023-05-07T05:50:13;10.30;99.90
21712;DHT22;11017;53.552;9.910;2023-05-07T05:52:40;10.40;99.90
21712;DHT22;11017;53.552;9.910;2023-05-07T05:55:08;10.50;99.90
21712;DHT22;11017;53.552;9.910;2023-05-07T05:57:37;10.50;99.90
21712;DHT22;11017;53.552;9.910;2023-05-07T06:00:04;10.30;99.90
21712;DHT22;11017;53.552;9.910;2023-05-07T06:02:32;10.50;99.90
21712;DHT22;11017;53.552;9.910;2023-05-07T06:04:58;10.50;99.90
21712;DHT22;11017;53.552;9.910;2023-05-07T06:07:25;10.50;99.90
21712;DHT22;11017;53.552;9.910;2023-05-07T06:09:55;10.50;99.90
21712;DHT22;11017;53.552;9.910;2023-05-07T06:12:22;10.50;99.90
21712;DHT22;11017;53.552;9.910;2023-05-07T06:14:51;10.40;99.90
21712;DHT22;11017;53.552;9.910;2023-05-07T06:17:18;10.40;99.90
21712;DHT22;11017;53.552;9.910;2023-05-07T06:19:45;10.40;99.90
21712;DHT22;11017;53.552;9.910;2023-05-07T06:22:11;10.50;99.90
21712;DHT22;11017;53.552;9.910;2023-05-07T06:24:38;10.50;99.90
21712;DHT22;11017;53.552;9.910;2023-05-07T06:27:05;10.70;99.90
21712;DHT22;11017;53.552;9.910;2023-05-07T06:29:32;10.80;99.90
21712;DHT22;11017;53.552;9.910;2023-05-07T06:32:07;10.50;99.90
21712;DHT22;11017;53.552;9.910;2023-05-07T06:34:34;10.50;99.90
21712;DHT22;11017;53.552;9.910;2023-05-07T06:37:02;10.60;99.90
21712;DHT22;11017;53.552;9.910;2023-05-07T06:39:29;10.40;99.90
21712;DHT22;11017;53.552;9.910;2023-05-07T06:41:56;10.40;99.90
21712;DHT22;11017;53.552;9.910;2023-05-07T06:44:23;10.60;99.90
21712;DHT22;11017;53.552;9.910;2023-05-07T06:46:49;10.80;99.90
21712;DHT22;11017;53.552;9.910;2023-05-07T06:49:18;10.70;99.90
21712;DHT22;11017;53.552;9.910;2023-05-07T06:51:45;10.70;99.90
21712;DHT22;11017;53.552;9.910;2023-05-07T06:54:12;10.80;99.90
21712;DHT22;11017;53.552;9.910;2023-05-07T06:56:38;11.00;99.90
21712;DHT22;11017;53.552;9.910;2023-05-07T06:59:06;11.10;99.90
21712;DHT22;11017;53.552;9.910;2023-05-07T07:01:33;11.20;99.90
21712;DHT22;11017;53.552;9.910;2023-05-07T07:04:00;10.80;99.90
21712;DHT22;11017;53.552;9.910;2023-05-07T07:06:28;10.70;99.90
21712;DHT22;11017;53.552;9.910;2023-05-07T07:08:57;10.80;99.90
21712;DHT22;11017;53.552;9.910;2023-05-07T07:11:24;11.00;99.90
21712;DHT22;11017;53.552;9.910;2023-05-07T07:13:51;11.20;99.90
21712;DHT22;11017;53.552;9.910;2023-05-07T07:16:19;11.20;99.90
21712;DHT22;11017;53.552;9.910;2023-05-07T07:18:46;11.10;99.90
21712;DHT22;11017;53.552;9.910;2023-05-07T07:21:13;11.20;99.90
21712;DHT22;11017;53.552;9.910;2023-05-07T07:23:41;11.30;99.90
21712;DHT22;11017;53.552;9.910;2023-05-07T07:26:08;11.40;99.90
21712;DHT22;11017;53.552;9.910;2023-05-07T07:28:36;11.10;99.90
21712;DHT22;11017;53.552;9.910;2023-05-07T07:31:08;11.10;99.90
21712;DHT22;11017;53.552;9.910;2023-05-07T07:33:35;11.20;99.90
21712;DHT22;11017;53.552;9.910;2023-05-07T07:36:02;11.40;99.90
21712;DHT22;11017;53.552;9.910;2023-05-07T07:38:29;11.40;99.90
21712;DHT22;11017;53.552;9.910;2023-05-07T07:40:57;11.40;99.90
21712;DHT22;11017;53.552;9.910;2023-05-07T07:43:24;11.40;99.90
21712;DHT22;11017;53.552;9.910;2023-05-07T07:45:51;11.50;99.90
21712;DHT22;11017;53.552;9.910;2023-05-07T07:48:18;11.60;99.90
21712;DHT22;11017;53.552;9.910;2023-05-07T07:50:44;11.40;99.90
21712;DHT22;11017;53.552;9.910;2023-05-07T07:53:11;11.50;99.90
21712;DHT22;11017;53.552;9.910;2023-05-07T07:55:38;11.50;99.90
21712;DHT22;11017;53.552;9.910;2023-05-07T07:58:07;11.70;99.90
21712;DHT22;11017;53.552;9.910;2023-05-07T08:00:34;12.00;99.90
21712;DHT22;11017;53.552;9.910;2023-05-07T08:03:01;12.10;99.90
21712;DHT22;11017;53.552;9.910;2023-05-07T08:05:28;11.80;99.90
21712;DHT22;11017;53.552;9.910;2023-05-07T08:07:55;12.00;99.90
21712;DHT22;11017;53.552;9.910;2023-05-07T08:10:24;11.90;99.90
21712;DHT22;11017;53.552;9.910;2023-05-07T08:12:51;12.10;99.90
21712;DHT22;11017;53.552;9.910;2023-05-07T08:15:19;11.90;99.90
21712;DHT22;11017;53.552;9.910;2023-05-07T08:17:46;11.60;99.90
21712;DHT22;11017;53.552;9.910;2023-05-07T08:20:13;11.80;99.90
21712;DHT22;11017;53.552;9.910;2023-05-07T08:22:40;11.80;99.90
21712;DHT22;11017;53.552;9.910;2023-05-07T08:25:08;11.70;99.90
21712;DHT22;11017;53.552;9.910;2023-05-07T08:27:35;11.60;99.90
21712;DHT22;11017;53.552;9.910;2023-05-07T08:30:02;11.70;99.90
21712;DHT22;11017;53.552;9.910;2023-05-07T08:32:30;11.70;99.90
21712;DHT22;11017;53.552;9.910;2023-05-07T08:34:57;11.90;99.90
21712;DHT22;11017;53.552;9.910;2023-05-07T08:37:24;11.90;99.90
21712;DHT22;11017;53.552;9.910;2023-05-07T08:39:51;11.60;99.90
21712;DHT22;11017;53.552;9.910;2023-05-07T08:42:18;11.50;99.90
21712;DHT22;11017;53.552;9.910;2023-05-07T08:44:47;11.70;99.90
21712;DHT22;11017;53.552;9.910;2023-05-07T08:47:18;11.70;99.90
21712;DHT22;11017;53.552;9.910;2023-05-07T08:49:47;11.60;99.90
21712;DHT22;11017;53.552;9.910;2023-05-07T08:52:15;11.70;99.90
21712;DHT22;11017;53.552;9.910;2023-05-07T08:54:42;12.10;99.90
21712;DHT22;11017;53.552;9.910;2023-05-07T08:57:09;12.10;99.90
21712;DHT22;11017;53.552;9.910;2023-05-07T08:59:36;12.00;99.90
21712;DHT22;11017;53.552;9.910;2023-05-07T09:02:04;12.00;99.90
21712;DHT22;11017;53.552;9.910;2023-05-07T09:04:32;11.90;99.90
21712;DHT22;11017;53.552;9.910;2023-05-07T09:07:00;11.80;99.90
21712;DHT22;11017;53.552;9.910;2023-05-07T09:09:32;12.00;99.90
21712;DHT22;11017;53.552;9.910;2023-05-07T09:11:59;12.50;99.90
21712;DHT22;11017;53.552;9.910;2023-05-07T09:14:27;12.80;99.90
21712;DHT22;11017;53.552;9.910;2023-05-07T09:16:54;12.80;99.90
21712;DHT22;11017;53.552;9.910;2023-05-07T09:19:22;12.80;99.90
21712;DHT22;11017;53.552;9.910;2023-05-07T09:21:49;12.90;99.90
21712;DHT22;11017;53.552;9.910;2023-05-07T09:24:18;12.80;99.90
21712;DHT22;11017;53.552;9.910;2023-05-07T09:26:45;12.60;99.90
21712;DHT22;11017;53.552;9.910;2023-05-07T09:29:12;12.70;99.90
21712;DHT22;11017;53.552;9.910;2023-05-07T09:31:39;12.70;99.90
21712;DHT22;11017;53.552;9.910;2023-05-07T09:34:06;12.70;99.90
21712;DHT22;11017;53.552;9.910;2023-05-07T09:36:33;12.40;99.90
21712;DHT22;11017;53.552;9.910;2023-05-07T09:39:00;12.40;99.90
21712;DHT22;11017;53.552;9.910;2023-05-07T09:41:30;12.40;99.90
21712;DHT22;11017;53.552;9.910;2023-05-07T09:43:57;12.30;99.90
21712;DHT22;11017;53.552;9.910;2023-05-07T09:46:29;12.50;99.90
21712;DHT22;11017;53.552;9.910;2023-05-07T09:48:57;12.70;99.90
21712;DHT22;11017;53.552;9.910;2023-05-07T09:51:28;12.50;99.90
21712;DHT22;11017;53.552;9.910;2023-05-07T09:53:57;12.40;99.90
21712;DHT22;11017;53.552;9.910;2023-05-07T09:56:26;12.50;99.90
21712;DHT22;11017;53.552;9.910;2023-05-07T09:58:57;12.70;99.90
21712;DHT22;11017;53.552;9.910;2023-05-07T10:01:24;12.70;99.90
21712;DHT22;11017;53.552;9.910;2023-05-07T10:03:53;12.90;99.90
21712;DHT22;11017;53.552;9.910;2023-05-07T10:06:20;13.20;99.90
21712;DHT22;11017;53.552;9.910;2023-05-07T10:08:48;13.30;99.90
21712;DHT22;11017;53.552;9.910;2023-05-07T10:11:16;13.20;99.90
21712;DHT22;11017;53.552;9.910;2023-05-07T10:13:43;13.30;99.90
21712;DHT22;11017;53.552;9.910;2023-05-07T10:16:11;13.40;99.90
21712;DHT22;11017;53.552;9.910;2023-05-07T10:18:40;13.30;99.90
21712;DHT22;11017;53.552;9.910;2023-05-07T10:21:16;13.30;99.90
21712;DHT22;11017;53.552;9.910;2023-05-07T10:23:45;13.30;99.90
21712;DHT22;11017;53.552;9.910;2023-05-07T10:26:13;13.50;99.90
21712;DHT22;11017;53.552;9.910;2023-05-07T10:28:45;13.30;99.90
21712;DHT22;11017;53.552;9.910;2023-05-07T10:31:27;13.30;99.90
21712;DHT22;11017;53.552;9.910;2023-05-07T10:33:59;13.30;99.90
21712;DHT22;11017;53.552;9.910;2023-05-07T10:36:28;13.70;99.90
21712;DHT22;11017;53.552;9.910;2023-05-07T10:38:55;13.90;99.90
21712;DHT22;11017;53.552;9.910;2023-05-07T10:41:22;13.70;99.90
21712;DHT22;11017;53.552;9.910;2023-05-07T10:43:49;13.60;99.90
21712;DHT22;11017;53.552;9.910;2023-05-07T10:46:18;13.60;99.90
21712;DHT22;11017;53.552;9.910;2023-05-07T10:49:10;13.70;99.90
21712;DHT22;11017;53.552;9.910;2023-05-07T10:51:40;13.70;99.90
21712;DHT22;11017;53.552;9.910;2023-05-07T10:54:21;13.90;99.90
21712;DHT22;11017;53.552;9.910;2023-05-07T10:56:49;14.00;99.90
21712;DHT22;11017;53.552;9.910;2023-05-07T10:59:35;13.90;99.90
21712;DHT22;11017;53.552;9.910;2023-05-07T11:02:09;14.00;99.90
21712;DHT22;11017;53.552;9.910;2023-05-07T11:04:37;14.10;99.90
21712;DHT22;11017;53.552;9.910;2023-05-07T11:07:26;14.10;99.90
21712;DHT22;11017;53.552;9.910;2023-05-07T11:10:03;13.80;99.90
21712;DHT22;11017;53.552;9.910;2023-05-07T11:12:53;13.80;99.90
21712;DHT22;11017;53.552;9.910;2023-05-07T11:15:43;13.90;99.90
21712;DHT22;11017;53.552;9.910;2023-05-07T11:18:13;13.60;99.90
21712;DHT22;11017;53.552;9.910;2023-05-07T11:20:58;13.90;99.90
21712;DHT22;11017;53.552;9.910;2023-05-07T11:26:44;14.30;99.90
21712;DHT22;11017;53.552;9.910;2023-05-07T11:29:12;14.30;99.90
21712;DHT22;11017;53.552;9.910;2023-05-07T11:31:39;14.30;99.90
21712;DHT22;11017;53.552;9.910;2023-05-07T11:34:08;14.60;99.90
21712;DHT22;11017;53.552;9.910;2023-05-07T11:36:37;15.00;99.90
21712;DHT22;11017;53.552;9.910;2023-05-07T11:39:27;15.10;99.90
21712;DHT22;11017;53.552;9.910;2023-05-07T11:41:54;15.30;99.90
21712;DHT22;11017;53.552;9.910;2023-05-07T11:44:21;15.20;99.90
21712;DHT22;11017;53.552;9.910;2023-05-07T11:46:48;15.50;99.90
21712;DHT22;11017;53.552;9.910;2023-05-07T11:49:17;15.50;99.90
21712;DHT22;11017;53.552;9.910;2023-05-07T11:51:44;15.40;99.90
21712;DHT22;11017;53.552;9.910;2023-05-07T11:54:15;15.80;99.90
21712;DHT22;11017;53.552;9.910;2023-05-07T11:56:44;15.70;99.90
21712;DHT22;11017;53.552;9.910;2023-05-07T11:59:11;16.00;99.90
21712;DHT22;11017;53.552;9.910;2023-05-07T12:01:38;16.50;99.90
21712;DHT22;11017;53.552;9.910;2023-05-07T12:04:05;16.10;99.90
21712;DHT22;11017;53.552;9.910;2023-05-07T12:06:36;16.10;99.90
21712;DHT22;11017;53.552;9.910;2023-05-07T12:09:04;15.70;99.90
21712;DHT22;11017;53.552;9.910;2023-05-07T12:11:32;15.50;99.90
21712;DHT22;11017;53.552;9.910;2023-05-07T12:13:59;15.70;99.90
21712;DHT22;11017;53.552;9.910;2023-05-07T12:16:26;15.90;99.90
21712;DHT22;11017;53.552;9.910;2023-05-07T12:18:53;16.20;99.90
21712;DHT22;11017;53.552;9.910;2023-05-07T12:21:20;16.10;99.90
21712;DHT22;11017;53.552;9.910;2023-05-07T12:23:49;16.20;99.90
21712;DHT22;11017;53.552;9.910;2023-05-07T12:26:16;16.60;99.90
21712;DHT22;11017;53.552;9.910;2023-05-07T12:28:43;16.60;99.90
21712;DHT22;11017;53.552;9.910;2023-05-07T12:31:10;16.30;99.90
21712;DHT22;11017;53.552;9.910;2023-05-07T12:33:37;16.10;99.90
21712;DHT22;11017;53.552;9.910;2023-05-07T12:36:06;16.20;99.90
21712;DHT22;11017;53.552;9.910;2023-05-07T12:38:37;16.40;99.90
21712;DHT22;11017;53.552;9.910;2023-05-07T12:41:08;16.80;99.90
21712;DHT22;11017;53.552;9.910;2023-05-07T12:43:35;17.00;99.90
21712;DHT22;11017;53.552;9.910;2023-05-07T12:46:05;17.00;99.90
21712;DHT22;11017;53.552;9.910;2023-05-07T12:48:32;17.50;99.90
21712;DHT22;11017;53.552;9.910;2023-05-07T12:51:00;17.50;99.90
21712;DHT22;11017;53.552;9.910;2023-05-07T12:53:28;17.60;99.90
21712;DHT22;11017;53.552;9.910;2023-05-07T12:55:56;17.50;99.90
21712;DHT22;11017;53.552;9.910;2023-05-07T12:58:26;17.60;99.90
21712;DHT22;11017;53.552;9.910;2023-05-07T13:00:54;18.30;99.90
21712;DHT22;11017;53.552;9.910;2023-05-07T13:03:25;18.30;99.90
21712;DHT22;11017;53.552;9.910;2023-05-07T13:05:57;18.50;99.90
21712;DHT22;11017;53.552;9.910;2023-05-07T13:08:28;18.90;99.90
21712;DHT22;11017;53.552;9.910;2023-05-07T13:10:56;19.60;99.90
21712;DHT22;11017;53.552;9.910;2023-05-07T13:13:23;19.30;99.90
21712;DHT22;11017;53.552;9.910;2023-05-07T13:15:51;18.90;99.90
21712;DHT22;11017;53.552;9.910;2023-05-07T13:18:18;18.20;99.90
21712;DHT22;11017;53.552;9.910;2023-05-07T13:20:45;18.00;99.90
21712;DHT22;11017;53.552;9.910;2023-05-07T13:23:12;18.40;99.90
21712;DHT22;11017;53.552;9.910;2023-05-07T13:25:39;18.30;99.90
21712;DHT22;11017;53.552;9.910;2023-05-07T13:28:06;18.80;99.90
21712;DHT22;11017;53.552;9.910;2023-05-07T13:30:33;18.40;99.90
21712;DHT22;11017;53.552;9.910;2023-05-07T13:33:01;18.10;99.90
21712;DHT22;11017;53.552;9.910;2023-05-07T13:35:28;18.00;99.90
21712;DHT22;11017;53.552;9.910;2023-05-07T13:37:55;17.90;99.90
21712;DHT22;11017;53.552;9.910;2023-05-07T13:40:22;18.30;99.90
21712;DHT22;11017;53.552;9.910;2023-05-07T13:42:50;18.50;99.90
21712;DHT22;11017;53.552;9.910;2023-05-07T13:45:18;18.70;99.90
21712;DHT22;11017;53.552;9.910;2023-05-07T13:47:45;18.50;99.90
21712;DHT22;11017;53.552;9.910;2023-05-07T13:50:14;18.70;99.90
21712;DHT22;11017;53.552;9.910;2023-05-07T13:52:41;18.60;99.90
21712;DHT22;11017;53.552;9.910;2023-05-07T13:55:11;18.80;99.90
21712;DHT22;11017;53.552;9.910;2023-05-07T13:57:38;19.40;99.90
21712;DHT22;11017;53.552;9.910;2023-05-07T14:00:06;19.30;99.90
21712;DHT22;11017;53.552;9.910;2023-05-07T14:02:33;19.70;99.90
21712;DHT22;11017;53.552;9.910;2023-05-07T14:05:03;19.90;99.90
21712;DHT22;11017;53.552;9.910;2023-05-07T14:07:35;19.70;99.90
21712;DHT22;11017;53.552;9.910;2023-05-07T14:10:03;19.90;99.90
21712;DHT22;11017;53.552;9.910;2023-05-07T14:12:31;20.30;99.90
21712;DHT22;11017;53.552;9.910;2023-05-07T14:14:58;20.80;99.90
21712;DHT22;11017;53.552;9.910;2023-05-07T14:17:25;21.60;99.90
21712;DHT22;11017;53.552;9.910;2023-05-07T14:19:52;21.50;99.90
21712;DHT22;11017;53.552;9.910;2023-05-07T14:22:20;21.80;99.90
21712;DHT22;11017;53.552;9.910;2023-05-07T14:24:49;22.10;99.90
21712;DHT22;11017;53.552;9.910;2023-05-07T14:27:16;21.10;99.90
21712;DHT22;11017;53.552;9.910;2023-05-07T14:29:43;20.80;99.90
21712;DHT22;11017;53.552;9.910;2023-05-07T14:32:11;20.50;99.90
21712;DHT22;11017;53.552;9.910;2023-05-07T14:34:37;20.90;99.90
21712;DHT22;11017;53.552;9.910;2023-05-07T14:37:04;21.80;99.90
21712;DHT22;11017;53.552;9.910;2023-05-07T14:39:31;22.00;99.90
21712;DHT22;11017;53.552;9.910;2023-05-07T14:42:02;21.80;99.90
21712;DHT22;11017;53.552;9.910;2023-05-07T14:44:29;22.30;99.90
21712;DHT22;11017;53.552;9.910;2023-05-07T14:46:57;22.20;99.90
21712;DHT22;11017;53.552;9.910;2023-05-07T14:49:23;22.00;99.90
21712;DHT22;11017;53.552;9.910;2023-05-07T14:51:50;22.00;99.90
21712;DHT22;11017;53.552;9.910;2023-05-07T14:54:17;22.20;99.90
21712;DHT22;11017;53.552;9.910;2023-05-07T14:56:44;22.20;99.90
21712;DHT22;11017;53.552;9.910;2023-05-07T14:59:12;21.70;99.90
21712;DHT22;11017;53.552;9.910;2023-05-07T15:01:41;20.70;99.90
21712;DHT22;11017;53.552;9.910;2023-05-07T15:04:11;20.20;99.90
21712;DHT22;11017;53.552;9.910;2023-05-07T15:06:38;19.70;99.90
21712;DHT22;11017;53.552;9.910;2023-05-07T15:09:05;19.70;99.90
21712;DHT22;11017;53.552;9.910;2023-05-07T15:11:33;19.70;99.90
21712;DHT22;11017;53.552;9.910;2023-05-07T15:14:00;19.50;99.90
21712;DHT22;11017;53.552;9.910;2023-05-07T15:16:28;18.80;99.90
21712;DHT22;11017;53.552;9.910;2023-05-07T15:18:55;18.10;99.90
21712;DHT22;11017;53.552;9.910;2023-05-07T15:21:22;17.80;99.90
21712;DHT22;11017;53.552;9.910;2023-05-07T15:23:49;18.20;99.90
21712;DHT22;11017;53.552;9.910;2023-05-07T15:26:16;18.20;99.90
21712;DHT22;11017;53.552;9.910;2023-05-07T15:28:43;17.90;99.90
21712;DHT22;11017;53.552;9.910;2023-05-07T15:31:10;17.50;99.90
21712;DHT22;11017;53.552;9.910;2023-05-07T15:33:38;17.80;99.90
21712;DHT22;11017;53.552;9.910;2023-05-07T15:36:06;17.60;99.90
21712;DHT22;11017;53.552;9.910;2023-05-07T15:38:34;17.30;99.90
21712;DHT22;11017;53.552;9.910;2023-05-07T15:41:00;17.20;99.90